KUOX/UOX METAR and TAF weather

Enter ICAO airport designator
Station Type Date Time Source
KUOX METAR 2021/07/28 03:55 UTC NOAA

KUOX 280355Z AUTO 00000KT 10SM CLR 26/25 A3003 RMK AO2 PWINO


Station Type Date Time Source
KUOX Decoded METAR 2021/07/28 03:55 UTC NOAA

Oxford, University-Oxford Airport, MS, United States (KUOX) 34-23-04N 089-32-08W
Jul 27, 2021 - 11:55 PM EDT / 2021.07.28 0355 UTC
Wind: Calm:0
Visibility: 10 mile(s):0
Sky conditions: clear
Temperature: 78 F (26 C)
Dew Point: 77 F (25 C)
Relative Humidity: 94%
Pressure (altimeter): 30.03 in. Hg (1016 hPa)
ob: KUOX 280355Z AUTO 00000KT 10SM CLR 26/25 A3003 RMK AO2 PWINO
cycle: 4

Station Type Date Time Source
KUOX TAF UTC NOAA

Error!

Example: see airport list